sensor_id;sensor_type;location;lat;lon;timestamp;pressure;altitude;pressure_sealevel;temperature;humidity
68628;BME280;55611;48.602;9.490;2023-01-30T00:00:00;97500;;;2.8;60.5
68628;BME280;55611;48.602;9.490;2023-01-30T00:07:31;97480;;;2.7;60.5
68628;BME280;55611;48.602;9.490;2023-01-30T00:10:02;97480;;;2.7;60.5
68628;BME280;55611;48.602;9.490;2023-01-30T00:12:32;97490;;;2.8;60.5
68628;BME280;55611;48.602;9.490;2023-01-30T00:15:02;97490;;;2.8;60.5
68628;BME280;55611;48.602;9.490;2023-01-30T00:22:33;97470;;;3;61
68628;BME280;55611;48.602;9.490;2023-01-30T00:52:37;97420;;;3.1;60.5
68628;BME280;55611;48.602;9.490;2023-01-30T01:00:08;97410;;;3.2;60.5
68628;BME280;55611;48.602;9.490;2023-01-30T01:02:39;97420;;;3.1;60.5
68628;BME280;55611;48.602;9.490;2023-01-30T01:05:09;97420;;;3.1;60.5
68628;BME280;55611;48.602;9.490;2023-01-30T01:12:41;97430;;;3;60.5
68628;BME280;55611;48.602;9.490;2023-01-30T01:15:11;97440;;;3.1;60.5
68628;BME280;55611;48.602;9.490;2023-01-30T01:17:41;97450;;;3.1;60.5
68628;BME280;55611;48.602;9.490;2023-01-30T01:22:42;97450;;;3.1;60.5
68628;BME280;55611;48.602;9.490;2023-01-30T01:25:13;97460;;;3.2;61
68628;BME280;55611;48.602;9.490;2023-01-30T01:27:43;97470;;;3.2;61
68628;BME280;55611;48.602;9.490;2023-01-30T01:30:14;97480;;;3.2;61
68628;BME280;55611;48.602;9.490;2023-01-30T01:32:44;97490;;;3.3;61
68628;BME280;55611;48.602;9.490;2023-01-30T01:37:45;97500;;;3.3;61
68628;BME280;55611;48.602;9.490;2023-01-30T01:40:17;97500;;;3.3;61
68628;BME280;55611;48.602;9.490;2023-01-30T01:42:46;97510;;;3.3;61
68628;BME280;55611;48.602;9.490;2023-01-30T01:45:18;97510;;;3.2;61
68628;BME280;55611;48.602;9.490;2023-01-30T01:47:53;97520;;;3.2;61
68628;BME280;55611;48.602;9.490;2023-01-30T01:50:18;97520;;;3.2;61
68628;BME280;55611;48.602;9.490;2023-01-30T01:52:48;97530;;;3.1;61
68628;BME280;55611;48.602;9.490;2023-01-30T01:55:19;97530;;;3.1;61
68628;BME280;55611;48.602;9.490;2023-01-30T01:57:50;97520;;;3.1;61
68628;BME280;55611;48.602;9.490;2023-01-30T02:00:20;97520;;;3;61
68628;BME280;55611;48.602;9.490;2023-01-30T02:05:21;97520;;;3;61
68628;BME280;55611;48.602;9.490;2023-01-30T02:07:54;97490;;;3;61
68628;BME280;55611;48.602;9.490;2023-01-30T02:10:24;97500;;;3;61
68628;BME280;55611;48.602;9.490;2023-01-30T02:12:52;97500;;;3.1;61
68628;BME280;55611;48.602;9.490;2023-01-30T02:15:23;97500;;;3;61
68628;BME280;55611;48.602;9.490;2023-01-30T02:17:53;97500;;;3;61
68628;BME280;55611;48.602;9.490;2023-01-30T02:20:30;97500;;;2.9;61
68628;BME280;55611;48.602;9.490;2023-01-30T02:22:59;97500;;;2.9;61
68628;BME280;55611;48.602;9.490;2023-01-30T02:25:29;97510;;;2.9;61
68628;BME280;55611;48.602;9.490;2023-01-30T02:28:01;97510;;;2.9;61
68628;BME280;55611;48.602;9.490;2023-01-30T02:33:04;97520;;;2.5;60.5
68628;BME280;55611;48.602;9.490;2023-01-30T02:35:30;97530;;;2;60.5
68628;BME280;55611;48.602;9.490;2023-01-30T02:40:48;97510;;;1.4;60.5
68628;BME280;55611;48.602;9.490;2023-01-30T02:45:41;97520;;;1.3;60
68628;BME280;55611;48.602;9.490;2023-01-30T02:48:00;97510;;;1.2;60
68628;BME280;55611;48.602;9.490;2023-01-30T02:53:01;97480;;;1.2;60
68628;BME280;55611;48.602;9.490;2023-01-30T02:55:31;97480;;;1.2;60
68628;BME280;55611;48.602;9.490;2023-01-30T02:58:02;97480;;;1.2;60
68628;BME280;55611;48.602;9.490;2023-01-30T03:00:42;97480;;;1.3;60
68628;BME280;55611;48.602;9.490;2023-01-30T03:03:07;97480;;;1.3;60
68628;BME280;55611;48.602;9.490;2023-01-30T03:06:09;97480;;;1.5;60
68628;BME280;55611;48.602;9.490;2023-01-30T03:08:08;97480;;;1.7;60
68628;BME280;55611;48.602;9.490;2023-01-30T03:10:44;97470;;;1.8;60
68628;BME280;55611;48.602;9.490;2023-01-30T03:13:13;97460;;;2.1;60
68628;BME280;55611;48.602;9.490;2023-01-30T03:16:39;97470;;;2.2;60
68628;BME280;55611;48.602;9.490;2023-01-30T03:18:06;97480;;;2.3;60
68628;BME280;55611;48.602;9.490;2023-01-30T03:20:37;97500;;;2.2;60.5
68628;BME280;55611;48.602;9.490;2023-01-30T03:23:07;97500;;;2.1;60.5
68628;BME280;55611;48.602;9.490;2023-01-30T03:25:38;97480;;;2.2;60
68628;BME280;55611;48.602;9.490;2023-01-30T03:28:08;97460;;;2;60
68628;BME280;55611;48.602;9.490;2023-01-30T03:30:38;97450;;;2;60
68628;BME280;55611;48.602;9.490;2023-01-30T03:33:09;97440;;;2;60
68628;BME280;55611;48.602;9.490;2023-01-30T03:35:39;97460;;;2;60
68628;BME280;55611;48.602;9.490;2023-01-30T03:38:10;97440;;;2.1;60
68628;BME280;55611;48.602;9.490;2023-01-30T03:40:40;97450;;;2;60
68628;BME280;55611;48.602;9.490;2023-01-30T03:43:11;97430;;;2.1;60
68628;BME280;55611;48.602;9.490;2023-01-30T03:45:41;97390;;;2.2;60
68628;BME280;55611;48.602;9.490;2023-01-30T03:48:12;97370;;;2.2;60
68628;BME280;55611;48.602;9.490;2023-01-30T03:50:42;97330;;;2.4;60
68628;BME280;55611;48.602;9.490;2023-01-30T03:53:13;97310;;;2.5;60.5
68628;BME280;55611;48.602;9.490;2023-01-30T03:55:43;97320;;;2.5;60.5
68628;BME280;55611;48.602;9.490;2023-01-30T03:58:14;97350;;;2.6;60.5
68628;BME280;55611;48.602;9.490;2023-01-30T04:00:44;97360;;;2.6;60.5
68628;BME280;55611;48.602;9.490;2023-01-30T04:03:15;97370;;;2.6;60.5
68628;BME280;55611;48.602;9.490;2023-01-30T04:05:45;97360;;;2.6;60.5
68628;BME280;55611;48.602;9.490;2023-01-30T04:08:16;97350;;;2.6;60.5
68628;BME280;55611;48.602;9.490;2023-01-30T04:10:46;97350;;;2.7;60.5
68628;BME280;55611;48.602;9.490;2023-01-30T04:13:17;97360;;;2.7;60.5
68628;BME280;55611;48.602;9.490;2023-01-30T04:15:47;97340;;;2.7;60.5
68628;BME280;55611;48.602;9.490;2023-01-30T04:18:18;97340;;;2.7;61
68628;BME280;55611;48.602;9.490;2023-01-30T04:20:48;97340;;;2.7;60.5
68628;BME280;55611;48.602;9.490;2023-01-30T04:23:19;97330;;;2.7;61
68628;BME280;55611;48.602;9.490;2023-01-30T04:25:49;97320;;;2.8;61
68628;BME280;55611;48.602;9.490;2023-01-30T04:28:20;97330;;;2.9;61
68628;BME280;55611;48.602;9.490;2023-01-30T04:30:51;97330;;;2.9;61
68628;BME280;55611;48.602;9.490;2023-01-30T04:33:21;97330;;;3;61
68628;BME280;55611;48.602;9.490;2023-01-30T04:35:53;97350;;;3;61
68628;BME280;55611;48.602;9.490;2023-01-30T04:38:22;97350;;;3;61
68628;BME280;55611;48.602;9.490;2023-01-30T04:40:53;97350;;;3;61
68628;BME280;55611;48.602;9.490;2023-01-30T04:43:24;97360;;;3;61
68628;BME280;55611;48.602;9.490;2023-01-30T04:45:54;97350;;;3;61
68628;BME280;55611;48.602;9.490;2023-01-30T04:48:24;97350;;;3;61
68628;BME280;55611;48.602;9.490;2023-01-30T04:50:55;97360;;;3;61
68628;BME280;55611;48.602;9.490;2023-01-30T04:53:25;97340;;;3.1;61
68628;BME280;55611;48.602;9.490;2023-01-30T04:55:56;97330;;;3.1;61
68628;BME280;55611;48.602;9.490;2023-01-30T04:58:26;97330;;;3.1;61
68628;BME280;55611;48.602;9.490;2023-01-30T05:01:10;97330;;;3.1;61
68628;BME280;55611;48.602;9.490;2023-01-30T05:03:27;97330;;;3.1;61
68628;BME280;55611;48.602;9.490;2023-01-30T05:05:58;97340;;;3.1;61
68628;BME280;55611;48.602;9.490;2023-01-30T05:08:28;97340;;;3.1;61
68628;BME280;55611;48.602;9.490;2023-01-30T05:10:59;97320;;;3.2;61
68628;BME280;55611;48.602;9.490;2023-01-30T05:13:29;97320;;;3.2;61
68628;BME280;55611;48.602;9.490;2023-01-30T05:16:00;97330;;;3.3;61
68628;BME280;55611;48.602;9.490;2023-01-30T05:18:30;97340;;;3.4;61
68628;BME280;55611;48.602;9.490;2023-01-30T05:21:03;97350;;;3.4;61
68628;BME280;55611;48.602;9.490;2023-01-30T05:23:31;97370;;;3.5;61
68628;BME280;55611;48.602;9.490;2023-01-30T05:26:02;97350;;;3.5;61
68628;BME280;55611;48.602;9.490;2023-01-30T05:28:32;97350;;;3.5;61
68628;BME280;55611;48.602;9.490;2023-01-30T05:31:04;97340;;;3.5;61
68628;BME280;55611;48.602;9.490;2023-01-30T05:33:33;97320;;;3.5;61
68628;BME280;55611;48.602;9.490;2023-01-30T05:36:04;97330;;;3.5;61
68628;BME280;55611;48.602;9.490;2023-01-30T05:38:34;97320;;;3.5;61
68628;BME280;55611;48.602;9.490;2023-01-30T05:41:06;97310;;;3.5;61
68628;BME280;55611;48.602;9.490;2023-01-30T05:43:36;97320;;;3.5;61
68628;BME280;55611;48.602;9.490;2023-01-30T05:46:06;97310;;;3.5;61
68628;BME280;55611;48.602;9.490;2023-01-30T05:48:37;97300;;;3.6;61
68628;BME280;55611;48.602;9.490;2023-01-30T05:51:15;97310;;;3.6;61
68628;BME280;55611;48.602;9.490;2023-01-30T05:53:37;97320;;;3.7;61
68628;BME280;55611;48.602;9.490;2023-01-30T05:56:08;97300;;;3.7;61
68628;BME280;55611;48.602;9.490;2023-01-30T05:58:39;97290;;;3.7;61
68628;BME280;55611;48.602;9.490;2023-01-30T06:01:10;97300;;;3.7;61
68628;BME280;55611;48.602;9.490;2023-01-30T06:03:40;97310;;;3.8;61
68628;BME280;55611;48.602;9.490;2023-01-30T06:06:11;97300;;;3.9;61
68628;BME280;55611;48.602;9.490;2023-01-30T06:08:41;97310;;;3.9;61
68628;BME280;55611;48.602;9.490;2023-01-30T06:11:13;97300;;;3.9;61
68628;BME280;55611;48.602;9.490;2023-01-30T06:13:42;97310;;;4;61
68628;BME280;55611;48.602;9.490;2023-01-30T06:16:13;97310;;;4;61
68628;BME280;55611;48.602;9.490;2023-01-30T06:18:43;97310;;;4.1;61
68628;BME280;55611;48.602;9.490;2023-01-30T06:21:14;97300;;;4.2;61
68628;BME280;55611;48.602;9.490;2023-01-30T06:23:44;97310;;;4.2;61
68628;BME280;55611;48.602;9.490;2023-01-30T06:26:14;97310;;;4.3;61
68628;BME280;55611;48.602;9.490;2023-01-30T06:28:45;97300;;;4.3;61
68628;BME280;55611;48.602;9.490;2023-01-30T06:31:15;97300;;;4.3;61
68628;BME280;55611;48.602;9.490;2023-01-30T06:36:16;97300;;;4.4;61
68628;BME280;55611;48.602;9.490;2023-01-30T06:38:47;97290;;;4.4;61
68628;BME280;55611;48.602;9.490;2023-01-30T06:41:17;97290;;;4.4;61
68628;BME280;55611;48.602;9.490;2023-01-30T06:43:48;97290;;;4.4;61
68628;BME280;55611;48.602;9.490;2023-01-30T06:46:18;97290;;;4.4;61
68628;BME280;55611;48.602;9.490;2023-01-30T06:48:49;97290;;;4.4;61
68628;BME280;55611;48.602;9.490;2023-01-30T06:51:19;97280;;;4.5;60.5
68628;BME280;55611;48.602;9.490;2023-01-30T06:53:50;97280;;;4.4;60.5
68628;BME280;55611;48.602;9.490;2023-01-30T06:56:20;97280;;;4.5;60.5
68628;BME280;55611;48.602;9.490;2023-01-30T06:58:51;97300;;;4.5;60.5
68628;BME280;55611;48.602;9.490;2023-01-30T07:01:33;97290;;;4.5;60.5
68628;BME280;55611;48.602;9.490;2023-01-30T07:04:03;97270;;;4.6;60.5
68628;BME280;55611;48.602;9.490;2023-01-30T07:08:52;97260;;;4.6;60.5
68628;BME280;55611;48.602;9.490;2023-01-30T07:11:23;97260;;;4.5;60.5
68628;BME280;55611;48.602;9.490;2023-01-30T07:13:53;97260;;;4.6;60.5
68628;BME280;55611;48.602;9.490;2023-01-30T07:16:24;97260;;;4.7;61
68628;BME280;55611;48.602;9.490;2023-01-30T07:18:55;97260;;;4.7;61
68628;BME280;55611;48.602;9.490;2023-01-30T07:21:25;97270;;;4.8;61
68628;BME280;55611;48.602;9.490;2023-01-30T07:23:55;97260;;;4.8;61
68628;BME280;55611;48.602;9.490;2023-01-30T07:26:26;97260;;;4.9;61
68628;BME280;55611;48.602;9.490;2023-01-30T07:28:56;97280;;;4.9;61
68628;BME280;55611;48.602;9.490;2023-01-30T07:36:27;97300;;;5.4;61
68628;BME280;55611;48.602;9.490;2023-01-30T07:38:58;97310;;;5.4;61
68628;BME280;55611;48.602;9.490;2023-01-30T07:49:00;97310;;;5.5;61
68628;BME280;55611;48.602;9.490;2023-01-30T07:51:30;97320;;;5.5;61
68628;BME280;55611;48.602;9.490;2023-01-30T07:54:01;97310;;;5.6;61
68628;BME280;55611;48.602;9.490;2023-01-30T07:59:01;97310;;;5.5;61
68628;BME280;55611;48.602;9.490;2023-01-30T08:04:02;97310;;;5.6;61
68628;BME280;55611;48.602;9.490;2023-01-30T08:06:33;97300;;;5.6;61
68628;BME280;55611;48.602;9.490;2023-01-30T08:09:03;97310;;;5.6;61
68628;BME280;55611;48.602;9.490;2023-01-30T08:11:34;97290;;;5.7;61
68628;BME280;55611;48.602;9.490;2023-01-30T08:14:04;97290;;;5.7;61
68628;BME280;55611;48.602;9.490;2023-01-30T08:16:35;97290;;;5.7;61
68628;BME280;55611;48.602;9.490;2023-01-30T08:19:05;97280;;;5.7;61
68628;BME280;55611;48.602;9.490;2023-01-30T08:21:36;97290;;;5.7;61
68628;BME280;55611;48.602;9.490;2023-01-30T08:24:06;97290;;;5.8;61
68628;BME280;55611;48.602;9.490;2023-01-30T08:26:37;97310;;;5.8;61
68628;BME280;55611;48.602;9.490;2023-01-30T08:29:07;97310;;;5.8;61
68628;BME280;55611;48.602;9.490;2023-01-30T08:31:38;97320;;;5.8;61
68628;BME280;55611;48.602;9.490;2023-01-30T08:34:08;97320;;;5.8;61
68628;BME280;55611;48.602;9.490;2023-01-30T08:36:39;97310;;;5.7;61
68628;BME280;55611;48.602;9.490;2023-01-30T08:39:09;97310;;;5.8;61
68628;BME280;55611;48.602;9.490;2023-01-30T08:41:40;97310;;;5.7;61
68628;BME280;55611;48.602;9.490;2023-01-30T08:44:11;97310;;;5.7;61
68628;BME280;55611;48.602;9.490;2023-01-30T08:46:41;97300;;;5.8;61
68628;BME280;55611;48.602;9.490;2023-01-30T08:49:11;97310;;;5.9;61
68628;BME280;55611;48.602;9.490;2023-01-30T08:51:42;97300;;;5.9;61
68628;BME280;55611;48.602;9.490;2023-01-30T08:54:12;97320;;;5.9;61
68628;BME280;55611;48.602;9.490;2023-01-30T08:56:43;97330;;;5.9;61
68628;BME280;55611;48.602;9.490;2023-01-30T09:01:44;97320;;;5.9;61
68628;BME280;55611;48.602;9.490;2023-01-30T09:04:14;97310;;;6;61
68628;BME280;55611;48.602;9.490;2023-01-30T09:06:45;97290;;;6;61
68628;BME280;55611;48.602;9.490;2023-01-30T09:09:15;97280;;;6;61
68628;BME280;55611;48.602;9.490;2023-01-30T09:11:46;97300;;;6;61
68628;BME280;55611;48.602;9.490;2023-01-30T09:14:16;97280;;;6;61
68628;BME280;55611;48.602;9.490;2023-01-30T09:16:47;97240;;;6.1;61
68628;BME280;55611;48.602;9.490;2023-01-30T09:19:17;97210;;;6.2;61
68628;BME280;55611;48.602;9.490;2023-01-30T09:21:49;97220;;;6.3;61
68628;BME280;55611;48.602;9.490;2023-01-30T09:24:18;97220;;;6.1;61
68628;BME280;55611;48.602;9.490;2023-01-30T09:26:49;97230;;;6.1;61
68628;BME280;55611;48.602;9.490;2023-01-30T09:29:19;97210;;;6.2;61
68628;BME280;55611;48.602;9.490;2023-01-30T09:31:50;97230;;;6.3;61
68628;BME280;55611;48.602;9.490;2023-01-30T09:34:21;97230;;;6.3;61
68628;BME280;55611;48.602;9.490;2023-01-30T09:36:51;97220;;;6.3;61
68628;BME280;55611;48.602;9.490;2023-01-30T09:39:21;97200;;;6.3;61
68628;BME280;55611;48.602;9.490;2023-01-30T09:41:55;97210;;;6.4;61
68628;BME280;55611;48.602;9.490;2023-01-30T09:44:31;97170;;;6.6;61
68628;BME280;55611;48.602;9.490;2023-01-30T09:46:55;97180;;;6.7;61
68628;BME280;55611;48.602;9.490;2023-01-30T09:49:27;97210;;;6.8;61
68628;BME280;55611;48.602;9.490;2023-01-30T09:54:28;97210;;;6.9;61
68628;BME280;55611;48.602;9.490;2023-01-30T09:56:57;97180;;;6.9;61
68628;BME280;55611;48.602;9.490;2023-01-30T09:59:29;97190;;;6.8;61
68628;BME280;55611;48.602;9.490;2023-01-30T10:02:00;97170;;;6.7;61
68628;BME280;55611;48.602;9.490;2023-01-30T10:04:31;97190;;;6.7;61
68628;BME280;55611;48.602;9.490;2023-01-30T10:06:59;97190;;;6.7;61.5
68628;BME280;55611;48.602;9.490;2023-01-30T10:09:33;97190;;;6.7;61
68628;BME280;55611;48.602;9.490;2023-01-30T10:14:48;97150;;;6.8;61
68628;BME280;55611;48.602;9.490;2023-01-30T10:17:04;97190;;;6.9;61
68628;BME280;55611;48.602;9.490;2023-01-30T10:19:48;97170;;;6.8;61
68628;BME280;55611;48.602;9.490;2023-01-30T10:22:01;97160;;;6.7;61
68628;BME280;55611;48.602;9.490;2023-01-30T10:24:34;97160;;;6.7;61
68628;BME280;55611;48.602;9.490;2023-01-30T10:27:01;97140;;;6.8;61
68628;BME280;55611;48.602;9.490;2023-01-30T10:29:32;97130;;;6.9;61
68628;BME280;55611;48.602;9.490;2023-01-30T10:32:04;97160;;;7.1;61
68628;BME280;55611;48.602;9.490;2023-01-30T10:34:34;97150;;;7;61
68628;BME280;55611;48.602;9.490;2023-01-30T10:37:08;97130;;;7;61
68628;BME280;55611;48.602;9.490;2023-01-30T10:39:35;97150;;;7;61
68628;BME280;55611;48.602;9.490;2023-01-30T10:42:12;97140;;;7;61
68628;BME280;55611;48.602;9.490;2023-01-30T10:44:35;97160;;;6.9;61
68628;BME280;55611;48.602;9.490;2023-01-30T10:47:40;97170;;;6.8;61
68628;BME280;55611;48.602;9.490;2023-01-30T10:49:40;97150;;;6.8;61
68628;BME280;55611;48.602;9.490;2023-01-30T10:52:18;97150;;;6.9;61
68628;BME280;55611;48.602;9.490;2023-01-30T10:54:47;97140;;;6.8;61
68628;BME280;55611;48.602;9.490;2023-01-30T10:58:14;97150;;;6.9;61
68628;BME280;55611;48.602;9.490;2023-01-30T10:59:49;97130;;;6.8;61
68628;BME280;55611;48.602;9.490;2023-01-30T11:02:15;97140;;;6.9;61
68628;BME280;55611;48.602;9.490;2023-01-30T11:04:49;97140;;;6.8;61
68628;BME280;55611;48.602;9.490;2023-01-30T11:07:09;97140;;;6.9;61
68628;BME280;55611;48.602;9.490;2023-01-30T11:09:42;97150;;;6.8;61
68628;BME280;55611;48.602;9.490;2023-01-30T11:12:11;97130;;;6.9;61
68628;BME280;55611;48.602;9.490;2023-01-30T11:17:13;97140;;;7;61
68628;BME280;55611;48.602;9.490;2023-01-30T11:19:42;97140;;;7;61
68628;BME280;55611;48.602;9.490;2023-01-30T11:22:13;97130;;;7;61
68628;BME280;55611;48.602;9.490;2023-01-30T11:24:44;97120;;;7.1;61
68628;BME280;55611;48.602;9.490;2023-01-30T11:27:16;97130;;;7.1;61
68628;BME280;55611;48.602;9.490;2023-01-30T11:29:44;97110;;;7.1;61
68628;BME280;55611;48.602;9.490;2023-01-30T11:32:18;97130;;;7.1;61
68628;BME280;55611;48.602;9.490;2023-01-30T11:34:45;97100;;;7.1;61
68628;BME280;55611;48.602;9.490;2023-01-30T11:37:47;97110;;;7.2;61
68628;BME280;55611;48.602;9.490;2023-01-30T11:39:47;97110;;;7.2;61
68628;BME280;55611;48.602;9.490;2023-01-30T11:42:17;97110;;;7.2;61
68628;BME280;55611;48.602;9.490;2023-01-30T11:44:48;97110;;;7.2;61
68628;BME280;55611;48.602;9.490;2023-01-30T11:47:20;97120;;;7.2;61
68628;BME280;55611;48.602;9.490;2023-01-30T11:49:48;97130;;;7.2;61
68628;BME280;55611;48.602;9.490;2023-01-30T11:52:19;97160;;;7.1;61
68628;BME280;55611;48.602;9.490;2023-01-30T11:57:20;97100;;;7.1;61
68628;BME280;55611;48.602;9.490;2023-01-30T11:59:58;97170;;;7.2;61
68628;BME280;55611;48.602;9.490;2023-01-30T12:02:25;97120;;;7;61
68628;BME280;55611;48.602;9.490;2023-01-30T12:07:23;97140;;;7.1;61
68628;BME280;55611;48.602;9.490;2023-01-30T12:09:52;97110;;;7;61
68628;BME280;55611;48.602;9.490;2023-01-30T12:12:25;97120;;;7;61
68628;BME280;55611;48.602;9.490;2023-01-30T12:14:57;97120;;;7;61
68628;BME280;55611;48.602;9.490;2023-01-30T12:18:29;97120;;;6.9;61
68628;BME280;55611;48.602;9.490;2023-01-30T12:19:57;97130;;;6.9;61
68628;BME280;55611;48.602;9.490;2023-01-30T12:22:31;97120;;;6.9;61
68628;BME280;55611;48.602;9.490;2023-01-30T12:24:57;97100;;;6.9;61
68628;BME280;55611;48.602;9.490;2023-01-30T12:27:30;97100;;;6.9;61
68628;BME280;55611;48.602;9.490;2023-01-30T12:30:03;97090;;;7;61
68628;BME280;55611;48.602;9.490;2023-01-30T12:32:28;97110;;;7;61
68628;BME280;55611;48.602;9.490;2023-01-30T12:34:57;97110;;;7.1;61
68628;BME280;55611;48.602;9.490;2023-01-30T12:40:03;97090;;;7.1;61
68628;BME280;55611;48.602;9.490;2023-01-30T12:45:04;97090;;;7.1;61
68628;BME280;55611;48.602;9.490;2023-01-30T12:50:34;97100;;;7.1;61
68628;BME280;55611;48.602;9.490;2023-01-30T12:52:36;97110;;;6.9;61
68628;BME280;55611;48.602;9.490;2023-01-30T12:55:06;97100;;;6.9;61
68628;BME280;55611;48.602;9.490;2023-01-30T12:57:35;97110;;;6.8;61
68628;BME280;55611;48.602;9.490;2023-01-30T13:00:23;97100;;;6.8;61
68628;BME280;55611;48.602;9.490;2023-01-30T13:02:51;97110;;;6.8;61
68628;BME280;55611;48.602;9.490;2023-01-30T13:05:21;97120;;;6.8;61
68628;BME280;55611;48.602;9.490;2023-01-30T13:07:38;97130;;;6.9;61
68628;BME280;55611;48.602;9.490;2023-01-30T13:10:07;97140;;;6.9;60.5
68628;BME280;55611;48.602;9.490;2023-01-30T13:12:37;97140;;;6.9;60.5
68628;BME280;55611;48.602;9.490;2023-01-30T13:15:13;97130;;;6.8;60.5
68628;BME280;55611;48.602;9.490;2023-01-30T13:17:41;97140;;;6.7;60.5
68628;BME280;55611;48.602;9.490;2023-01-30T13:20:13;97150;;;6.7;60.5
68628;BME280;55611;48.602;9.490;2023-01-30T13:23:11;97160;;;6.6;60.5
68628;BME280;55611;48.602;9.490;2023-01-30T13:25:19;97160;;;6.6;60.5
68628;BME280;55611;48.602;9.490;2023-01-30T13:27:39;97150;;;6.5;60.5
68628;BME280;55611;48.602;9.490;2023-01-30T13:30:13;97140;;;6.5;60.5
68628;BME280;55611;48.602;9.490;2023-01-30T13:32:41;97140;;;6.4;60.5
68628;BME280;55611;48.602;9.490;2023-01-30T13:35:14;97150;;;6.4;60.5
68628;BME280;55611;48.602;9.490;2023-01-30T13:37:41;97160;;;6.3;60.5
68628;BME280;55611;48.602;9.490;2023-01-30T13:40:14;97160;;;6.3;60.5
68628;BME280;55611;48.602;9.490;2023-01-30T13:42:47;97160;;;6.2;60.5
68628;BME280;55611;48.602;9.490;2023-01-30T13:45:14;97180;;;6.2;60.5
68628;BME280;55611;48.602;9.490;2023-01-30T13:47:47;97190;;;6.2;60.5
68628;BME280;55611;48.602;9.490;2023-01-30T13:50:25;97200;;;6.1;60.5
68628;BME280;55611;48.602;9.490;2023-01-30T13:52:46;97200;;;6.1;60.5
68628;BME280;55611;48.602;9.490;2023-01-30T13:55:46;97200;;;6;60.5
68628;BME280;55611;48.602;9.490;2023-01-30T13:57:46;97210;;;6;60.5
68628;BME280;55611;48.602;9.490;2023-01-30T14:00:17;97210;;;6;60.5
68628;BME280;55611;48.602;9.490;2023-01-30T14:03:49;97200;;;6;60.5
68628;BME280;55611;48.602;9.490;2023-01-30T14:05:21;97190;;;5.9;60.5
68628;BME280;55611;48.602;9.490;2023-01-30T14:07:46;97200;;;5.9;60.5
68628;BME280;55611;48.602;9.490;2023-01-30T14:10:18;97220;;;5.9;60.5
68628;BME280;55611;48.602;9.490;2023-01-30T14:12:50;97210;;;5.8;60.5
68628;BME280;55611;48.602;9.490;2023-01-30T14:15:23;97210;;;5.8;60.5
68628;BME280;55611;48.602;9.490;2023-01-30T14:17:58;97220;;;5.8;60.5
68628;BME280;55611;48.602;9.490;2023-01-30T14:20:19;97230;;;5.8;60.5
68628;BME280;55611;48.602;9.490;2023-01-30T14:22:53;97230;;;5.7;60.5
68628;BME280;55611;48.602;9.490;2023-01-30T14:25:28;97230;;;5.7;60.5
68628;BME280;55611;48.602;9.490;2023-01-30T14:27:51;97230;;;5.7;60.5
68628;BME280;55611;48.602;9.490;2023-01-30T14:30:37;97240;;;5.6;60.5
68628;BME280;55611;48.602;9.490;2023-01-30T14:32:53;97240;;;5.7;60.5
68628;BME280;55611;48.602;9.490;2023-01-30T14:40:26;97250;;;5.6;60.5
68628;BME280;55611;48.602;9.490;2023-01-30T14:43:31;97260;;;5.6;60.5
68628;BME280;55611;48.602;9.490;2023-01-30T14:45:41;97260;;;5.6;60.5
68628;BME280;55611;48.602;9.490;2023-01-30T14:50:25;97260;;;5.5;60.5
68628;BME280;55611;48.602;9.490;2023-01-30T14:52:56;97270;;;5.5;60.5
68628;BME280;55611;48.602;9.490;2023-01-30T14:55:26;97280;;;5.5;60.5
68628;BME280;55611;48.602;9.490;2023-01-30T14:57:58;97280;;;5.5;60.5
68628;BME280;55611;48.602;9.490;2023-01-30T15:00:28;97270;;;5.4;60.5
68628;BME280;55611;48.602;9.490;2023-01-30T15:03:01;97270;;;5.4;60.5
68628;BME280;55611;48.602;9.490;2023-01-30T15:05:36;97280;;;5.3;60.5
68628;BME280;55611;48.602;9.490;2023-01-30T15:08:07;97290;;;5.3;60.5
68628;BME280;55611;48.602;9.490;2023-01-30T15:11:32;97290;;;5.3;60.5
68628;BME280;55611;48.602;9.490;2023-01-30T15:14:05;97310;;;5.2;60.5
68628;BME280;55611;48.602;9.490;2023-01-30T15:15:32;97310;;;5.2;60.5
68628;BME280;55611;48.602;9.490;2023-01-30T15:18:04;97310;;;5.2;60.5
68628;BME280;55611;48.602;9.490;2023-01-30T15:20:36;97310;;;5.3;60.5
68628;BME280;55611;48.602;9.490;2023-01-30T15:23:12;97310;;;5.3;60.5
68628;BME280;55611;48.602;9.490;2023-01-30T15:25:55;97320;;;5.3;60.5
68628;BME280;55611;48.602;9.490;2023-01-30T15:30:39;97330;;;5.3;60.5
68628;BME280;55611;48.602;9.490;2023-01-30T15:33:20;97330;;;5.3;60.5
68628;BME280;55611;48.602;9.490;2023-01-30T15:35:35;97340;;;5.4;60.5
68628;BME280;55611;48.602;9.490;2023-01-30T15:38:16;97340;;;5.4;60.5
68628;BME280;55611;48.602;9.490;2023-01-30T15:40:38;97340;;;5.5;60.5
68628;BME280;55611;48.602;9.490;2023-01-30T15:43:12;97340;;;5.5;60.5
68628;BME280;55611;48.602;9.490;2023-01-30T15:48:27;97350;;;5.5;60.5
68628;BME280;55611;48.602;9.490;2023-01-30T15:50:38;97340;;;5.5;60.5
68628;BME280;55611;48.602;9.490;2023-01-30T15:53:11;97360;;;5.6;60.5
68628;BME280;55611;48.602;9.490;2023-01-30T15:55:40;97360;;;5.6;60.5
68628;BME280;55611;48.602;9.490;2023-01-30T15:58:11;97380;;;5.6;60.5
68628;BME280;55611;48.602;9.490;2023-01-30T16:00:43;97370;;;5.6;60.5
68628;BME280;55611;48.602;9.490;2023-01-30T16:03:12;97360;;;5.6;60.5
68628;BME280;55611;48.602;9.490;2023-01-30T16:05:45;97350;;;5.6;60.5
68628;BME280;55611;48.602;9.490;2023-01-30T16:08:17;97350;;;5.6;60.5
68628;BME280;55611;48.602;9.490;2023-01-30T16:10:43;97340;;;5.6;60.5
68628;BME280;55611;48.602;9.490;2023-01-30T16:13:12;97350;;;5.6;60.5
68628;BME280;55611;48.602;9.490;2023-01-30T16:15:45;97340;;;5.6;60.5
68628;BME280;55611;48.602;9.490;2023-01-30T16:18:20;97360;;;5.6;60.5
68628;BME280;55611;48.602;9.490;2023-01-30T16:20:45;97360;;;5.6;60.5
68628;BME280;55611;48.602;9.490;2023-01-30T16:23:18;97360;;;5.5;60.5
68628;BME280;55611;48.602;9.490;2023-01-30T16:25:45;97360;;;5.5;60.5
68628;BME280;55611;48.602;9.490;2023-01-30T16:28:18;97350;;;5.6;60.5
68628;BME280;55611;48.602;9.490;2023-01-30T16:30:46;97370;;;5.6;60.5
68628;BME280;55611;48.602;9.490;2023-01-30T16:33:16;97360;;;5.6;60.5
68628;BME280;55611;48.602;9.490;2023-01-30T16:35:47;97370;;;5.6;60.5
68628;BME280;55611;48.602;9.490;2023-01-30T16:38:27;97370;;;5.6;60.5
68628;BME280;55611;48.602;9.490;2023-01-30T16:40:48;97380;;;5.7;60.5
68628;BME280;55611;48.602;9.490;2023-01-30T16:43:19;97390;;;5.7;60.5
68628;BME280;55611;48.602;9.490;2023-01-30T16:45:58;97370;;;5.7;60.5
68628;BME280;55611;48.602;9.490;2023-01-30T16:48:21;97380;;;5.8;60.5